sensor_id;sensor_type;location;lat;lon;timestamp;P1;durP1;ratioP1;P2;durP2;ratioP2
48596;SDS011;34382;43.160;24.148;2023-06-19T00:04:32;14.05;;;8.43;;
48596;SDS011;34382;43.160;24.148;2023-06-19T00:06:05;15.38;;;8.75;;
48596;SDS011;34382;43.160;24.148;2023-06-19T00:07:37;14.40;;;8.70;;
48596;SDS011;34382;43.160;24.148;2023-06-19T00:09:10;16.48;;;8.60;;
48596;SDS011;34382;43.160;24.148;2023-06-19T00:10:42;16.60;;;9.55;;
48596;SDS011;34382;43.160;24.148;2023-06-19T00:12:14;15.45;;;9.02;;
48596;SDS011;34382;43.160;24.148;2023-06-19T00:13:46;14.57;;;9.20;;
48596;SDS011;34382;43.160;24.148;2023-06-19T00:15:18;17.13;;;8.93;;
48596;SDS011;34382;43.160;24.148;2023-06-19T00:16:51;12.85;;;8.45;;
48596;SDS011;34382;43.160;24.148;2023-06-19T00:19:58;14.45;;;8.32;;
48596;SDS011;34382;43.160;24.148;2023-06-19T00:21:30;13.37;;;8.90;;
48596;SDS011;34382;43.160;24.148;2023-06-19T00:23:03;15.90;;;8.23;;
48596;SDS011;34382;43.160;24.148;2023-06-19T00:24:35;15.50;;;8.70;;
48596;SDS011;34382;43.160;24.148;2023-06-19T00:26:08;13.93;;;8.23;;
48596;SDS011;34382;43.160;24.148;2023-06-19T00:27:40;13.85;;;8.25;;
48596;SDS011;34382;43.160;24.148;2023-06-19T00:29:12;11.80;;;7.68;;
48596;SDS011;34382;43.160;24.148;2023-06-19T00:30:45;14.52;;;8.27;;
48596;SDS011;34382;43.160;24.148;2023-06-19T00:32:17;14.10;;;7.97;;
48596;SDS011;34382;43.160;24.148;2023-06-19T00:33:50;13.07;;;7.83;;
48596;SDS011;34382;43.160;24.148;2023-06-19T00:35:22;12.88;;;7.50;;
48596;SDS011;34382;43.160;24.148;2023-06-19T00:36:55;12.63;;;8.07;;
48596;SDS011;34382;43.160;24.148;2023-06-19T00:38:27;12.32;;;8.13;;
48596;SDS011;34382;43.160;24.148;2023-06-19T00:40:00;12.77;;;7.30;;
48596;SDS011;34382;43.160;24.148;2023-06-19T00:41:35;14.23;;;8.45;;
48596;SDS011;34382;43.160;24.148;2023-06-19T00:43:08;11.75;;;8.50;;
48596;SDS011;34382;43.160;24.148;2023-06-19T00:44:40;15.70;;;7.57;;
48596;SDS011;34382;43.160;24.148;2023-06-19T00:46:12;13.13;;;8.25;;
48596;SDS011;34382;43.160;24.148;2023-06-19T00:47:45;12.57;;;8.15;;
48596;SDS011;34382;43.160;24.148;2023-06-19T00:49:17;12.55;;;8.07;;
48596;SDS011;34382;43.160;24.148;2023-06-19T00:50:50;12.75;;;8.30;;
48596;SDS011;34382;43.160;24.148;2023-06-19T00:52:22;15.83;;;8.77;;
48596;SDS011;34382;43.160;24.148;2023-06-19T00:53:54;12.65;;;8.20;;
48596;SDS011;34382;43.160;24.148;2023-06-19T00:55:28;13.48;;;7.85;;
48596;SDS011;34382;43.160;24.148;2023-06-19T00:57:04;13.90;;;8.23;;
48596;SDS011;34382;43.160;24.148;2023-06-19T00:58:36;13.63;;;8.10;;
48596;SDS011;34382;43.160;24.148;2023-06-19T01:00:09;14.57;;;8.10;;
48596;SDS011;34382;43.160;24.148;2023-06-19T01:01:44;13.10;;;8.00;;
48596;SDS011;34382;43.160;24.148;2023-06-19T01:03:17;13.27;;;7.20;;
48596;SDS011;34382;43.160;24.148;2023-06-19T01:04:50;14.15;;;8.68;;
48596;SDS011;34382;43.160;24.148;2023-06-19T01:06:25;13.82;;;7.88;;
48596;SDS011;34382;43.160;24.148;2023-06-19T01:08:24;14.43;;;8.20;;
48596;SDS011;34382;43.160;24.148;2023-06-19T01:10:35;14.35;;;7.85;;
48596;SDS011;34382;43.160;24.148;2023-06-19T01:12:13;12.65;;;7.47;;
48596;SDS011;34382;43.160;24.148;2023-06-19T01:13:53;12.82;;;7.63;;
48596;SDS011;34382;43.160;24.148;2023-06-19T01:15:29;11.68;;;7.18;;
48596;SDS011;34382;43.160;24.148;2023-06-19T01:17:02;14.20;;;7.88;;
48596;SDS011;34382;43.160;24.148;2023-06-19T01:18:34;13.73;;;7.88;;
48596;SDS011;34382;43.160;24.148;2023-06-19T01:20:07;12.45;;;7.55;;
48596;SDS011;34382;43.160;24.148;2023-06-19T01:21:42;14.68;;;7.85;;
48596;SDS011;34382;43.160;24.148;2023-06-19T01:23:14;16.15;;;8.15;;
48596;SDS011;34382;43.160;24.148;2023-06-19T01:24:47;14.93;;;7.78;;
48596;SDS011;34382;43.160;24.148;2023-06-19T01:26:21;12.90;;;7.10;;
48596;SDS011;34382;43.160;24.148;2023-06-19T01:27:59;12.18;;;7.82;;
48596;SDS011;34382;43.160;24.148;2023-06-19T01:29:31;16.00;;;7.72;;
48596;SDS011;34382;43.160;24.148;2023-06-19T01:31:05;17.05;;;8.57;;
48596;SDS011;34382;43.160;24.148;2023-06-19T01:33:00;19.80;;;7.60;;
48596;SDS011;34382;43.160;24.148;2023-06-19T01:34:38;13.18;;;7.65;;
48596;SDS011;34382;43.160;24.148;2023-06-19T01:37:43;12.40;;;6.82;;
48596;SDS011;34382;43.160;24.148;2023-06-19T01:39:17;11.85;;;7.55;;
48596;SDS011;34382;43.160;24.148;2023-06-19T01:40:50;14.35;;;7.90;;
48596;SDS011;34382;43.160;24.148;2023-06-19T01:42:25;14.00;;;7.15;;
48596;SDS011;34382;43.160;24.148;2023-06-19T01:43:58;12.27;;;7.30;;
48596;SDS011;34382;43.160;24.148;2023-06-19T01:45:31;14.63;;;8.93;;
48596;SDS011;34382;43.160;24.148;2023-06-19T01:47:07;16.75;;;7.38;;
48596;SDS011;34382;43.160;24.148;2023-06-19T01:48:41;15.82;;;7.03;;
48596;SDS011;34382;43.160;24.148;2023-06-19T01:50:17;13.60;;;7.70;;
48596;SDS011;34382;43.160;24.148;2023-06-19T01:51:49;15.27;;;8.15;;
48596;SDS011;34382;43.160;24.148;2023-06-19T01:53:22;15.80;;;8.48;;
48596;SDS011;34382;43.160;24.148;2023-06-19T01:54:54;13.27;;;8.13;;
48596;SDS011;34382;43.160;24.148;2023-06-19T01:56:26;13.55;;;8.00;;
48596;SDS011;34382;43.160;24.148;2023-06-19T01:57:59;15.25;;;8.90;;
48596;SDS011;34382;43.160;24.148;2023-06-19T01:59:31;13.40;;;7.68;;
48596;SDS011;34382;43.160;24.148;2023-06-19T02:01:03;13.95;;;7.57;;
48596;SDS011;34382;43.160;24.148;2023-06-19T02:02:36;15.70;;;7.70;;
48596;SDS011;34382;43.160;24.148;2023-06-19T02:05:55;11.50;;;7.50;;
48596;SDS011;34382;43.160;24.148;2023-06-19T02:07:27;12.30;;;7.32;;
48596;SDS011;34382;43.160;24.148;2023-06-19T02:12:26;15.13;;;7.30;;
48596;SDS011;34382;43.160;24.148;2023-06-19T02:15:38;17.45;;;7.60;;
48596;SDS011;34382;43.160;24.148;2023-06-19T02:23:50;12.40;;;7.15;;
48596;SDS011;34382;43.160;24.148;2023-06-19T02:25:22;17.25;;;7.55;;
48596;SDS011;34382;43.160;24.148;2023-06-19T02:26:54;12.40;;;6.82;;
48596;SDS011;34382;43.160;24.148;2023-06-19T02:28:26;15.15;;;6.90;;
48596;SDS011;34382;43.160;24.148;2023-06-19T02:29:58;12.38;;;7.25;;
48596;SDS011;34382;43.160;24.148;2023-06-19T02:31:31;12.77;;;6.93;;
48596;SDS011;34382;43.160;24.148;2023-06-19T02:33:03;14.43;;;6.75;;
48596;SDS011;34382;43.160;24.148;2023-06-19T02:34:35;16.55;;;7.75;;
48596;SDS011;34382;43.160;24.148;2023-06-19T02:36:07;13.85;;;7.03;;
48596;SDS011;34382;43.160;24.148;2023-06-19T02:39:16;15.85;;;6.68;;
48596;SDS011;34382;43.160;24.148;2023-06-19T02:40:50;13.80;;;7.20;;
48596;SDS011;34382;43.160;24.148;2023-06-19T02:42:22;12.82;;;6.65;;
48596;SDS011;34382;43.160;24.148;2023-06-19T02:43:54;13.82;;;7.00;;
48596;SDS011;34382;43.160;24.148;2023-06-19T02:45:26;12.05;;;6.00;;
48596;SDS011;34382;43.160;24.148;2023-06-19T02:47:01;13.13;;;6.72;;
48596;SDS011;34382;43.160;24.148;2023-06-19T02:48:33;14.25;;;6.88;;
48596;SDS011;34382;43.160;24.148;2023-06-19T02:50:06;16.33;;;6.57;;
48596;SDS011;34382;43.160;24.148;2023-06-19T02:51:38;13.52;;;6.70;;
48596;SDS011;34382;43.160;24.148;2023-06-19T02:53:12;15.98;;;6.38;;
48596;SDS011;34382;43.160;24.148;2023-06-19T02:54:44;11.82;;;6.20;;
48596;SDS011;34382;43.160;24.148;2023-06-19T02:56:17;13.60;;;6.30;;
48596;SDS011;34382;43.160;24.148;2023-06-19T02:57:49;18.83;;;6.93;;
48596;SDS011;34382;43.160;24.148;2023-06-19T02:59:21;11.52;;;5.88;;
48596;SDS011;34382;43.160;24.148;2023-06-19T03:00:53;18.10;;;6.75;;
48596;SDS011;34382;43.160;24.148;2023-06-19T03:26:10;15.90;;;7.63;;
48596;SDS011;34382;43.160;24.148;2023-06-19T03:27:42;17.17;;;5.77;;
48596;SDS011;34382;43.160;24.148;2023-06-19T03:29:14;16.20;;;6.03;;
48596;SDS011;34382;43.160;24.148;2023-06-19T03:30:47;14.48;;;5.90;;
48596;SDS011;34382;43.160;24.148;2023-06-19T03:32:19;12.90;;;5.88;;
48596;SDS011;34382;43.160;24.148;2023-06-19T03:33:51;13.15;;;6.25;;
48596;SDS011;34382;43.160;24.148;2023-06-19T03:35:24;12.75;;;6.05;;
48596;SDS011;34382;43.160;24.148;2023-06-19T03:36:56;14.00;;;6.40;;
48596;SDS011;34382;43.160;24.148;2023-06-19T03:38:28;12.48;;;6.13;;
48596;SDS011;34382;43.160;24.148;2023-06-19T03:40:00;14.02;;;6.25;;
48596;SDS011;34382;43.160;24.148;2023-06-19T03:41:32;11.38;;;6.13;;
48596;SDS011;34382;43.160;24.148;2023-06-19T03:43:05;19.67;;;6.57;;
48596;SDS011;34382;43.160;24.148;2023-06-19T03:44:37;12.15;;;6.45;;
48596;SDS011;34382;43.160;24.148;2023-06-19T03:46:09;13.25;;;6.70;;
48596;SDS011;34382;43.160;24.148;2023-06-19T03:47:41;10.77;;;6.10;;
48596;SDS011;34382;43.160;24.148;2023-06-19T03:49:13;12.68;;;6.68;;
48596;SDS011;34382;43.160;24.148;2023-06-19T03:50:46;10.80;;;6.40;;
48596;SDS011;34382;43.160;24.148;2023-06-19T03:52:18;11.48;;;6.43;;
48596;SDS011;34382;43.160;24.148;2023-06-19T03:53:50;11.77;;;6.43;;
48596;SDS011;34382;43.160;24.148;2023-06-19T03:55:23;11.88;;;6.50;;
48596;SDS011;34382;43.160;24.148;2023-06-19T03:56:55;13.23;;;6.38;;
48596;SDS011;34382;43.160;24.148;2023-06-19T03:58:27;11.48;;;7.10;;
48596;SDS011;34382;43.160;24.148;2023-06-19T03:59:59;11.10;;;6.32;;
48596;SDS011;34382;43.160;24.148;2023-06-19T04:01:31;12.73;;;7.15;;
48596;SDS011;34382;43.160;24.148;2023-06-19T04:03:04;10.32;;;6.38;;
48596;SDS011;34382;43.160;24.148;2023-06-19T04:04:36;13.70;;;7.13;;
48596;SDS011;34382;43.160;24.148;2023-06-19T04:06:08;11.95;;;6.88;;
48596;SDS011;34382;43.160;24.148;2023-06-19T04:07:41;11.23;;;6.45;;
48596;SDS011;34382;43.160;24.148;2023-06-19T04:09:13;11.02;;;7.13;;
48596;SDS011;34382;43.160;24.148;2023-06-19T04:10:48;13.68;;;6.50;;
48596;SDS011;34382;43.160;24.148;2023-06-19T04:15:35;11.32;;;6.78;;
48596;SDS011;34382;43.160;24.148;2023-06-19T04:17:08;12.95;;;7.15;;
48596;SDS011;34382;43.160;24.148;2023-06-19T04:18:41;13.32;;;6.53;;
48596;SDS011;34382;43.160;24.148;2023-06-19T04:20:13;11.05;;;6.32;;
48596;SDS011;34382;43.160;24.148;2023-06-19T04:21:45;14.50;;;7.03;;
48596;SDS011;34382;43.160;24.148;2023-06-19T04:23:18;12.77;;;7.00;;
48596;SDS011;34382;43.160;24.148;2023-06-19T04:24:50;12.05;;;6.60;;
48596;SDS011;34382;43.160;24.148;2023-06-19T04:26:22;16.08;;;6.80;;
48596;SDS011;34382;43.160;24.148;2023-06-19T04:27:56;14.32;;;7.80;;
48596;SDS011;34382;43.160;24.148;2023-06-19T04:29:28;13.75;;;7.45;;
48596;SDS011;34382;43.160;24.148;2023-06-19T04:31:03;13.48;;;7.18;;
48596;SDS011;34382;43.160;24.148;2023-06-19T04:32:35;11.43;;;6.93;;
48596;SDS011;34382;43.160;24.148;2023-06-19T04:34:07;14.32;;;7.63;;
48596;SDS011;34382;43.160;24.148;2023-06-19T04:35:39;13.23;;;7.88;;
48596;SDS011;34382;43.160;24.148;2023-06-19T04:37:12;12.50;;;7.50;;
48596;SDS011;34382;43.160;24.148;2023-06-19T04:38:44;13.38;;;7.18;;
48596;SDS011;34382;43.160;24.148;2023-06-19T04:40:17;14.55;;;7.30;;
48596;SDS011;34382;43.160;24.148;2023-06-19T04:41:49;12.15;;;7.05;;
48596;SDS011;34382;43.160;24.148;2023-06-19T04:43:21;12.23;;;7.00;;
48596;SDS011;34382;43.160;24.148;2023-06-19T04:44:56;13.02;;;7.18;;
48596;SDS011;34382;43.160;24.148;2023-06-19T04:46:30;11.52;;;7.00;;
48596;SDS011;34382;43.160;24.148;2023-06-19T04:48:03;12.15;;;6.80;;
48596;SDS011;34382;43.160;24.148;2023-06-19T04:49:36;15.45;;;7.28;;
48596;SDS011;34382;43.160;24.148;2023-06-19T04:51:08;11.35;;;6.53;;
48596;SDS011;34382;43.160;24.148;2023-06-19T04:52:40;12.30;;;7.05;;
48596;SDS011;34382;43.160;24.148;2023-06-19T04:54:12;11.45;;;7.60;;
48596;SDS011;34382;43.160;24.148;2023-06-19T04:55:44;13.10;;;7.35;;
48596;SDS011;34382;43.160;24.148;2023-06-19T04:57:17;13.10;;;7.32;;
48596;SDS011;34382;43.160;24.148;2023-06-19T04:58:49;13.52;;;7.38;;
48596;SDS011;34382;43.160;24.148;2023-06-19T05:00:22;14.35;;;7.32;;
48596;SDS011;34382;43.160;24.148;2023-06-19T05:01:56;12.55;;;7.10;;
48596;SDS011;34382;43.160;24.148;2023-06-19T05:05:01;12.90;;;7.25;;
48596;SDS011;34382;43.160;24.148;2023-06-19T05:06:34;15.15;;;7.72;;
48596;SDS011;34382;43.160;24.148;2023-06-19T05:08:06;13.30;;;7.57;;
48596;SDS011;34382;43.160;24.148;2023-06-19T05:09:38;16.30;;;8.82;;
48596;SDS011;34382;43.160;24.148;2023-06-19T05:11:10;13.80;;;7.80;;
48596;SDS011;34382;43.160;24.148;2023-06-19T05:12:42;11.80;;;6.65;;
48596;SDS011;34382;43.160;24.148;2023-06-19T05:14:15;11.75;;;7.07;;
48596;SDS011;34382;43.160;24.148;2023-06-19T05:15:47;12.57;;;7.10;;
48596;SDS011;34382;43.160;24.148;2023-06-19T05:17:20;12.55;;;7.05;;
48596;SDS011;34382;43.160;24.148;2023-06-19T05:18:52;13.82;;;7.20;;
48596;SDS011;34382;43.160;24.148;2023-06-19T05:20:24;13.20;;;7.30;;
48596;SDS011;34382;43.160;24.148;2023-06-19T05:21:57;13.50;;;7.00;;
48596;SDS011;34382;43.160;24.148;2023-06-19T05:23:29;12.77;;;6.78;;
48596;SDS011;34382;43.160;24.148;2023-06-19T05:25:01;14.05;;;7.28;;
48596;SDS011;34382;43.160;24.148;2023-06-19T05:26:34;12.07;;;7.43;;
48596;SDS011;34382;43.160;24.148;2023-06-19T05:28:10;13.93;;;7.03;;
48596;SDS011;34382;43.160;24.148;2023-06-19T05:29:42;12.18;;;6.65;;
48596;SDS011;34382;43.160;24.148;2023-06-19T05:31:14;12.50;;;7.30;;
48596;SDS011;34382;43.160;24.148;2023-06-19T05:32:47;10.35;;;6.57;;
48596;SDS011;34382;43.160;24.148;2023-06-19T05:34:19;11.40;;;6.70;;
48596;SDS011;34382;43.160;24.148;2023-06-19T05:35:51;11.05;;;6.80;;
48596;SDS011;34382;43.160;24.148;2023-06-19T05:37:25;11.95;;;6.80;;
48596;SDS011;34382;43.160;24.148;2023-06-19T05:40:33;10.23;;;6.07;;
48596;SDS011;34382;43.160;24.148;2023-06-19T05:42:06;11.77;;;6.80;;
48596;SDS011;34382;43.160;24.148;2023-06-19T05:43:38;9.82;;;5.95;;
48596;SDS011;34382;43.160;24.148;2023-06-19T05:45:11;10.27;;;5.80;;
48596;SDS011;34382;43.160;24.148;2023-06-19T05:46:43;10.52;;;6.07;;
48596;SDS011;34382;43.160;24.148;2023-06-19T05:48:15;10.57;;;6.43;;
48596;SDS011;34382;43.160;24.148;2023-06-19T05:49:47;10.35;;;5.53;;
48596;SDS011;34382;43.160;24.148;2023-06-19T05:51:20;10.75;;;6.25;;
48596;SDS011;34382;43.160;24.148;2023-06-19T05:52:52;8.60;;;5.57;;
48596;SDS011;34382;43.160;24.148;2023-06-19T05:54:25;11.93;;;6.00;;
48596;SDS011;34382;43.160;24.148;2023-06-19T05:55:57;11.02;;;5.82;;
48596;SDS011;34382;43.160;24.148;2023-06-19T05:57:30;9.63;;;5.40;;
48596;SDS011;34382;43.160;24.148;2023-06-19T05:59:02;9.35;;;5.53;;
48596;SDS011;34382;43.160;24.148;2023-06-19T06:12:48;9.70;;;4.78;;
48596;SDS011;34382;43.160;24.148;2023-06-19T06:14:21;8.95;;;4.60;;
48596;SDS011;34382;43.160;24.148;2023-06-19T06:15:53;9.93;;;5.33;;
48596;SDS011;34382;43.160;24.148;2023-06-19T06:17:25;9.82;;;5.22;;
48596;SDS011;34382;43.160;24.148;2023-06-19T06:18:58;9.57;;;5.50;;
48596;SDS011;34382;43.160;24.148;2023-06-19T06:20:31;10.45;;;5.20;;
48596;SDS011;34382;43.160;24.148;2023-06-19T06:22:03;9.70;;;5.40;;
48596;SDS011;34382;43.160;24.148;2023-06-19T06:23:35;9.70;;;5.10;;
48596;SDS011;34382;43.160;24.148;2023-06-19T06:25:08;8.38;;;4.88;;
48596;SDS011;34382;43.160;24.148;2023-06-19T06:26:44;8.82;;;4.90;;
48596;SDS011;34382;43.160;24.148;2023-06-19T06:28:16;11.65;;;5.65;;
48596;SDS011;34382;43.160;24.148;2023-06-19T06:29:49;9.60;;;5.15;;
48596;SDS011;34382;43.160;24.148;2023-06-19T06:31:24;10.77;;;5.15;;
48596;SDS011;34382;43.160;24.148;2023-06-19T06:32:57;11.73;;;5.88;;
48596;SDS011;34382;43.160;24.148;2023-06-19T06:34:29;10.48;;;5.20;;
48596;SDS011;34382;43.160;24.148;2023-06-19T06:36:02;10.65;;;5.35;;
48596;SDS011;34382;43.160;24.148;2023-06-19T06:37:36;16.07;;;6.67;;
48596;SDS011;34382;43.160;24.148;2023-06-19T06:39:09;9.33;;;4.43;;
48596;SDS011;34382;43.160;24.148;2023-06-19T06:40:42;12.35;;;4.95;;
48596;SDS011;34382;43.160;24.148;2023-06-19T06:42:15;10.80;;;5.20;;
48596;SDS011;34382;43.160;24.148;2023-06-19T06:43:47;8.55;;;4.22;;
48596;SDS011;34382;43.160;24.148;2023-06-19T06:45:20;13.32;;;4.60;;
48596;SDS011;34382;43.160;24.148;2023-06-19T06:46:52;7.70;;;4.35;;
48596;SDS011;34382;43.160;24.148;2023-06-19T06:48:24;10.93;;;5.03;;
48596;SDS011;34382;43.160;24.148;2023-06-19T06:49:56;8.63;;;4.88;;
48596;SDS011;34382;43.160;24.148;2023-06-19T06:51:28;10.45;;;5.15;;
48596;SDS011;34382;43.160;24.148;2023-06-19T06:53:01;9.55;;;5.05;;
48596;SDS011;34382;43.160;24.148;2023-06-19T06:54:33;8.52;;;4.18;;
48596;SDS011;34382;43.160;24.148;2023-06-19T06:56:05;9.23;;;4.93;;
48596;SDS011;34382;43.160;24.148;2023-06-19T06:57:37;8.48;;;4.55;;
48596;SDS011;34382;43.160;24.148;2023-06-19T06:59:10;9.50;;;4.60;;
48596;SDS011;34382;43.160;24.148;2023-06-19T07:00:42;9.32;;;4.45;;
48596;SDS011;34382;43.160;24.148;2023-06-19T07:02:14;10.98;;;4.57;;
48596;SDS011;34382;43.160;24.148;2023-06-19T07:16:09;10.25;;;4.60;;
48596;SDS011;34382;43.160;24.148;2023-06-19T07:17:42;9.80;;;4.57;;
48596;SDS011;34382;43.160;24.148;2023-06-19T07:19:16;9.30;;;4.43;;
48596;SDS011;34382;43.160;24.148;2023-06-19T07:20:48;7.78;;;4.38;;
48596;SDS011;34382;43.160;24.148;2023-06-19T07:41:38;9.30;;;4.47;;
48596;SDS011;34382;43.160;24.148;2023-06-19T07:43:10;8.57;;;4.75;;
48596;SDS011;34382;43.160;24.148;2023-06-19T07:44:45;8.73;;;4.40;;
48596;SDS011;34382;43.160;24.148;2023-06-19T07:46:17;8.90;;;4.28;;
48596;SDS011;34382;43.160;24.148;2023-06-19T07:47:56;8.55;;;4.25;;
48596;SDS011;34382;43.160;24.148;2023-06-19T07:49:28;8.02;;;3.92;;
48596;SDS011;34382;43.160;24.148;2023-06-19T07:51:01;7.72;;;4.07;;
48596;SDS011;34382;43.160;24.148;2023-06-19T07:52:33;10.23;;;5.25;;
48596;SDS011;34382;43.160;24.148;2023-06-19T07:54:05;8.85;;;4.00;;
48596;SDS011;34382;43.160;24.148;2023-06-19T07:55:37;10.50;;;4.28;;
48596;SDS011;34382;43.160;24.148;2023-06-19T07:57:10;9.43;;;4.40;;
48596;SDS011;34382;43.160;24.148;2023-06-19T07:58:42;10.80;;;4.55;;
48596;SDS011;34382;43.160;24.148;2023-06-19T08:00:14;10.13;;;4.75;;
48596;SDS011;34382;43.160;24.148;2023-06-19T08:01:46;11.65;;;5.30;;
48596;SDS011;34382;43.160;24.148;2023-06-19T08:03:18;12.43;;;4.60;;
48596;SDS011;34382;43.160;24.148;2023-06-19T08:04:51;8.73;;;4.60;;
48596;SDS011;34382;43.160;24.148;2023-06-19T08:06:23;7.75;;;4.35;;
48596;SDS011;34382;43.160;24.148;2023-06-19T08:07:58;9.73;;;4.70;;
48596;SDS011;34382;43.160;24.148;2023-06-19T08:09:31;9.27;;;4.32;;
48596;SDS011;34382;43.160;24.148;2023-06-19T08:11:03;9.52;;;5.03;;
48596;SDS011;34382;43.160;24.148;2023-06-19T08:12:36;8.15;;;5.13;;
48596;SDS011;34382;43.160;24.148;2023-06-19T08:14:08;9.88;;;4.90;;
48596;SDS011;34382;43.160;24.148;2023-06-19T08:15:40;9.57;;;4.35;;
48596;SDS011;34382;43.160;24.148;2023-06-19T08:17:13;9.05;;;5.28;;
48596;SDS011;34382;43.160;24.148;2023-06-19T08:18:45;10.05;;;4.75;;
48596;SDS011;34382;43.160;24.148;2023-06-19T08:20:18;10.18;;;5.03;;
48596;SDS011;34382;43.160;24.148;2023-06-19T08:21:51;11.75;;;5.38;;
48596;SDS011;34382;43.160;24.148;2023-06-19T08:23:23;11.18;;;4.45;;
48596;SDS011;34382;43.160;24.148;2023-06-19T08:24:56;7.80;;;4.47;;
48596;SDS011;34382;43.160;24.148;2023-06-19T08:26:28;7.40;;;4.18;;
48596;SDS011;34382;43.160;24.148;2023-06-19T08:28:00;9.13;;;4.70;;
48596;SDS011;34382;43.160;24.148;2023-06-19T08:29:32;9.93;;;4.65;;
48596;SDS011;34382;43.160;24.148;2023-06-19T08:31:05;8.73;;;4.55;;
48596;SDS011;34382;43.160;24.148;2023-06-19T08:32:37;9.43;;;4.95;;
48596;SDS011;34382;43.160;24.148;2023-06-19T08:34:09;8.18;;;4.30;;
48596;SDS011;34382;43.160;24.148;2023-06-19T08:35:42;8.45;;;4.53;;
48596;SDS011;34382;43.160;24.148;2023-06-19T08:37:15;10.15;;;4.63;;
48596;SDS011;34382;43.160;24.148;2023-06-19T08:38:50;14.35;;;5.32;;
48596;SDS011;34382;43.160;24.148;2023-06-19T08:40:24;9.65;;;5.00;;
48596;SDS011;34382;43.160;24.148;2023-06-19T08:41:57;11.38;;;5.50;;
48596;SDS011;34382;43.160;24.148;2023-06-19T08:43:29;11.27;;;5.35;;
48596;SDS011;34382;43.160;24.148;2023-06-19T08:45:01;17.70;;;7.43;;
48596;SDS011;34382;43.160;24.148;2023-06-19T08:46:34;10.10;;;5.53;;
48596;SDS011;34382;43.160;24.148;2023-06-19T08:48:12;8.77;;;5.45;;
48596;SDS011;34382;43.160;24.148;2023-06-19T08:49:45;8.90;;;5.55;;
48596;SDS011;34382;43.160;24.148;2023-06-19T08:51:18;9.50;;;5.70;;
48596;SDS011;34382;43.160;24.148;2023-06-19T08:52:50;9.85;;;5.22;;
48596;SDS011;34382;43.160;24.148;2023-06-19T08:54:25;9.40;;;5.30;;
48596;SDS011;34382;43.160;24.148;2023-06-19T08:56:08;8.55;;;4.85;;
48596;SDS011;34382;43.160;24.148;2023-06-19T08:57:40;9.20;;;5.32;;
48596;SDS011;34382;43.160;24.148;2023-06-19T08:59:13;7.80;;;4.65;;
48596;SDS011;34382;43.160;24.148;2023-06-19T09:00:47;8.73;;;4.63;;
48596;SDS011;34382;43.160;24.148;2023-06-19T09:02:19;11.40;;;5.10;;
48596;SDS011;34382;43.160;24.148;2023-06-19T09:03:52;9.45;;;5.30;;
48596;SDS011;34382;43.160;24.148;2023-06-19T09:05:25;9.32;;;5.00;;
48596;SDS011;34382;43.160;24.148;2023-06-19T09:07:01;9.52;;;4.93;;
48596;SDS011;34382;43.160;24.148;2023-06-19T09:08:35;8.90;;;5.28;;
48596;SDS011;34382;43.160;24.148;2023-06-19T09:10:16;9.30;;;5.57;;
48596;SDS011;34382;43.160;24.148;2023-06-19T09:13:31;8.88;;;5.22;;
48596;SDS011;34382;43.160;24.148;2023-06-19T09:15:10;9.55;;;5.30;;
48596;SDS011;34382;43.160;24.148;2023-06-19T09:16:44;10.40;;;5.70;;
48596;SDS011;34382;43.160;24.148;2023-06-19T09:18:16;9.93;;;6.27;;
48596;SDS011;34382;43.160;24.148;2023-06-19T09:19:49;9.45;;;5.60;;
48596;SDS011;34382;43.160;24.148;2023-06-19T09:21:22;13.18;;;5.72;;
48596;SDS011;34382;43.160;24.148;2023-06-19T09:51:19;37.97;;;11.57;;
48596;SDS011;34382;43.160;24.148;2023-06-19T09:58:37;9.48;;;5.57;;
48596;SDS011;34382;43.160;24.148;2023-06-19T10:00:10;10.30;;;5.65;;
48596;SDS011;34382;43.160;24.148;2023-06-19T10:15:32;12.70;;;5.80;;
48596;SDS011;34382;43.160;24.148;2023-06-19T10:17:09;8.60;;;4.63;;
48596;SDS011;34382;43.160;24.148;2023-06-19T10:25:34;11.15;;;5.60;;
48596;SDS011;34382;43.160;24.148;2023-06-19T10:27:08;9.85;;;5.50;;
48596;SDS011;34382;43.160;24.148;2023-06-19T10:28:45;9.52;;;5.72;;
48596;SDS011;34382;43.160;24.148;2023-06-19T10:30:18;9.52;;;5.47;;
48596;SDS011;34382;43.160;24.148;2023-06-19T10:31:51;8.77;;;5.68;;
48596;SDS011;34382;43.160;24.148;2023-06-19T10:33:25;8.70;;;5.40;;
48596;SDS011;34382;43.160;24.148;2023-06-19T10:34:58;9.60;;;5.35;;
48596;SDS011;34382;43.160;24.148;2023-06-19T10:36:30;11.52;;;5.93;;
48596;SDS011;34382;43.160;24.148;2023-06-19T10:38:03;9.55;;;5.65;;
48596;SDS011;34382;43.160;24.148;2023-06-19T10:39:36;9.85;;;5.80;;
48596;SDS011;34382;43.160;24.148;2023-06-19T10:41:14;8.80;;;5.27;;
48596;SDS011;34382;43.160;24.148;2023-06-19T10:42:49;9.90;;;5.40;;
48596;SDS011;34382;43.160;24.148;2023-06-19T10:44:22;10.93;;;5.35;;
48596;SDS011;34382;43.160;24.148;2023-06-19T10:45:56;12.60;;;5.60;;
48596;SDS011;34382;43.160;24.148;2023-06-19T10:47:28;9.27;;;5.28;;
48596;SDS011;34382;43.160;24.148;2023-06-19T10:49:01;12.47;;;5.20;;
48596;SDS011;34382;43.160;24.148;2023-06-19T10:50:41;10.27;;;5.28;;
48596;SDS011;34382;43.160;24.148;2023-06-19T10:52:14;8.63;;;4.82;;
48596;SDS011;34382;43.160;24.148;2023-06-19T10:53:47;8.18;;;4.88;;
48596;SDS011;34382;43.160;24.148;2023-06-19T10:55:19;10.13;;;5.10;;
48596;SDS011;34382;43.160;24.148;2023-06-19T10:56:52;8.73;;;5.10;;
48596;SDS011;34382;43.160;24.148;2023-06-19T10:58:26;8.70;;;5.00;;
48596;SDS011;34382;43.160;24.148;2023-06-19T10:59:59;9.73;;;5.30;;
48596;SDS011;34382;43.160;24.148;2023-06-19T11:01:35;9.50;;;4.95;;
48596;SDS011;34382;43.160;24.148;2023-06-19T11:03:09;8.43;;;4.95;;
48596;SDS011;34382;43.160;24.148;2023-06-19T11:04:41;8.57;;;4.78;;
48596;SDS011;34382;43.160;24.148;2023-06-19T11:06:19;8.33;;;4.80;;
48596;SDS011;34382;43.160;24.148;2023-06-19T11:07:53;9.05;;;4.80;;
48596;SDS011;34382;43.160;24.148;2023-06-19T11:09:29;8.93;;;5.45;;
48596;SDS011;34382;43.160;24.148;2023-06-19T11:11:02;9.10;;;5.35;;
48596;SDS011;34382;43.160;24.148;2023-06-19T11:12:34;9.03;;;4.77;;
48596;SDS011;34382;43.160;24.148;2023-06-19T11:14:07;8.73;;;4.85;;
48596;SDS011;34382;43.160;24.148;2023-06-19T11:15:41;10.05;;;4.90;;
48596;SDS011;34382;43.160;24.148;2023-06-19T11:17:14;12.30;;;5.45;;
48596;SDS011;34382;43.160;24.148;2023-06-19T11:20:19;8.45;;;4.68;;
48596;SDS011;34382;43.160;24.148;2023-06-19T11:21:51;9.32;;;5.05;;
48596;SDS011;34382;43.160;24.148;2023-06-19T11:23:29;10.00;;;5.50;;
48596;SDS011;34382;43.160;24.148;2023-06-19T11:25:02;9.05;;;5.55;;
48596;SDS011;34382;43.160;24.148;2023-06-19T11:26:38;9.02;;;5.07;;
48596;SDS011;34382;43.160;24.148;2023-06-19T11:28:16;8.88;;;5.20;;
48596;SDS011;34382;43.160;24.148;2023-06-19T11:29:57;9.07;;;5.28;;
48596;SDS011;34382;43.160;24.148;2023-06-19T11:44:08;9.57;;;5.95;;
48596;SDS011;34382;43.160;24.148;2023-06-19T11:45:49;11.48;;;6.03;;
48596;SDS011;34382;43.160;24.148;2023-06-19T11:47:23;9.30;;;5.40;;
48596;SDS011;34382;43.160;24.148;2023-06-19T11:49:17;10.43;;;5.97;;
48596;SDS011;34382;43.160;24.148;2023-06-19T11:50:50;10.32;;;5.85;;
48596;SDS011;34382;43.160;24.148;2023-06-19T11:52:23;10.23;;;6.15;;
48596;SDS011;34382;43.160;24.148;2023-06-19T11:53:56;8.82;;;5.57;;
48596;SDS011;34382;43.160;24.148;2023-06-19T11:55:28;10.23;;;6.23;;